Time;durP1;ratioP1;P1;durP2;ratioP2;P2;SDS_P1;SDS_P2;PMS_P1;PMS_P2;Temp;Humidity;BMP_temperature;BMP_pressure;BME280_temperature;BME280_humidity;BME280_pressure;Samples;Min_cycle;Max_cycle;Signal;HPM_P1;HPM_P2
2021/09/21 00:01:15;;;;;;;3.87;2.70;;;11.20;99.90;11.20;101477.00;;;;4972733;28;92948;-66
2021/09/21 00:03:41;;;;;;;4.23;2.80;;;11.20;99.90;11.20;101480.00;;;;4972509;28;92811;-66
2021/09/21 00:06:07;;;;;;;3.80;2.80;;;11.20;99.90;11.20;101483.00;;;;4972514;28;106360;-66
2021/09/21 00:08:34;;;;;;;4.53;2.93;;;11.30;99.90;11.20;101482.00;;;;4972227;28;93838;-66
2021/09/21 00:11:02;;;;;;;3.10;2.80;;;11.30;99.90;11.20;101486.00;;;;4973249;28;93062;-66
2021/09/21 00:13:29;;;;;;;2.90;2.40;;;11.20;99.90;11.20;101485.00;;;;4972428;28;92923;-67
2021/09/21 00:15:56;;;;;;;2.97;2.13;;;11.20;99.90;11.20;101496.00;;;;4972222;28;97829;-66
2021/09/21 00:18:22;;;;;;;3.77;3.07;;;11.20;99.90;11.20;101488.00;;;;4970349;28;94328;-66
2021/09/21 00:20:47;;;;;;;3.87;2.83;;;11.20;99.90;11.20;101489.00;;;;4972973;28;92822;-67
2021/09/21 00:23:13;;;;;;;2.93;2.47;;;11.20;99.90;11.10;101491.00;;;;4955936;28;93995;-65
2021/09/21 00:25:39;;;;;;;4.50;2.47;;;11.20;99.90;11.10;101483.00;;;;4970836;28;122105;-65
2021/09/21 00:28:05;;;;;;;3.03;2.50;;;11.10;99.90;11.10;101483.00;;;;4971314;28;112510;-65
2021/09/21 00:30:31;;;;;;;4.13;2.70;;;11.20;99.90;11.10;101481.00;;;;4969627;28;108716;-65
2021/09/21 00:33:02;;;;;;;3.97;3.17;;;11.10;99.90;11.10;101492.00;;;;4972189;28;91996;-65
2021/09/21 00:35:32;;;;;;;5.20;2.90;;;11.10;99.90;11.10;101489.00;;;;4972338;28;92733;-65
2021/09/21 00:38:03;;;;;;;5.17;2.80;;;11.10;99.90;11.10;101490.00;;;;4973401;28;93012;-65
2021/09/21 00:40:29;;;;;;;2.67;2.47;;;11.10;99.90;11.10;101494.00;;;;4974724;28;109714;-65
2021/09/21 00:43:03;;;;;;;3.87;2.67;;;11.10;99.90;11.10;101492.00;;;;4975867;28;93015;-65
2021/09/21 00:45:30;;;;;;;2.73;2.30;;;11.10;99.90;11.10;101486.00;;;;4975421;28;93993;-65
2021/09/21 00:47:56;;;;;;;3.60;2.57;;;11.10;99.90;11.10;101487.00;;;;4974972;28;105901;-65
2021/09/21 00:50:25;;;;;;;3.23;2.73;;;11.00;99.90;11.10;101486.00;;;;4974958;28;107059;-65
2021/09/21 00:52:52;;;;;;;4.00;2.30;;;11.10;99.90;11.10;101476.00;;;;4975971;28;93003;-66
2021/09/21 00:55:18;;;;;;;5.70;2.97;;;11.10;99.90;11.10;101479.00;;;;4964819;28;92898;-66
2021/09/21 00:57:44;;;;;;;2.23;1.87;;;11.10;99.90;11.10;101487.00;;;;4976224;28;92262;-66
2021/09/21 01:00:14;;;;;;;3.90;2.87;;;11.10;99.90;11.10;101487.00;;;;4975072;28;92726;-66
2021/09/21 01:02:40;;;;;;;3.63;2.07;;;11.10;99.90;11.10;101487.00;;;;4975289;28;92818;-66
2021/09/21 01:05:07;;;;;;;2.53;2.33;;;11.10;99.90;11.10;101487.00;;;;4974911;28;104505;-65
2021/09/21 01:07:37;;;;;;;3.83;2.53;;;11.10;99.90;11.00;101491.00;;;;4975047;28;94187;-65
2021/09/21 01:10:09;;;;;;;3.23;2.40;;;11.10;99.90;11.00;101480.00;;;;4975641;28;92891;-65
2021/09/21 01:12:36;;;;;;;5.37;2.90;;;11.10;99.90;11.00;101484.00;;;;4964520;28;92681;-65
2021/09/21 01:15:04;;;;;;;5.23;3.07;;;11.10;99.90;11.00;101490.00;;;;4969283;28;93783;-65
2021/09/21 01:17:30;;;;;;;2.97;2.63;;;11.00;99.90;11.00;101486.00;;;;4974732;28;92670;-65
2021/09/21 01:19:56;;;;;;;3.50;2.63;;;11.00;99.90;11.00;101486.00;;;;4975230;28;93038;-65
2021/09/21 01:22:21;;;;;;;3.93;2.47;;;11.00;99.90;11.00;101488.00;;;;4973505;28;107030;-65
2021/09/21 01:24:47;;;;;;;2.50;2.27;;;11.00;99.90;11.00;101495.00;;;;4967285;28;93353;-65
2021/09/21 01:27:13;;;;;;;3.77;2.57;;;11.00;99.90;11.00;101489.00;;;;4973549;28;123252;-66
2021/09/21 01:29:39;;;;;;;2.73;2.53;;;11.00;99.90;11.00;101478.00;;;;4955853;28;93674;-65
2021/09/21 01:32:05;;;;;;;3.17;2.50;;;11.00;99.90;11.00;101477.00;;;;4975021;28;92778;-65
2021/09/21 01:34:34;;;;;;;3.60;2.40;;;11.00;99.90;11.00;101485.00;;;;4973220;28;122800;-65
2021/09/21 01:37:01;;;;;;;3.57;2.67;;;11.00;99.90;10.90;101489.00;;;;4974973;28;93108;-65
2021/09/21 01:39:27;;;;;;;3.93;2.33;;;11.00;99.90;10.90;101494.00;;;;4974557;28;92843;-65
2021/09/21 01:41:52;;;;;;;2.30;2.10;;;11.00;99.90;10.90;101498.00;;;;4974517;28;108602;-65
2021/09/21 01:44:19;;;;;;;3.53;2.20;;;10.90;99.90;10.90;101488.00;;;;4973222;28;115723;-65
2021/09/21 01:46:46;;;;;;;4.47;2.50;;;10.90;99.90;10.90;101482.00;;;;4973826;28;123117;-65
2021/09/21 01:49:15;;;;;;;4.43;2.67;;;10.90;99.90;10.90;101481.00;;;;4974486;28;93097;-65
2021/09/21 01:51:48;;;;;;;4.80;2.53;;;10.90;99.90;10.80;101483.00;;;;4975099;28;92959;-65
2021/09/21 01:54:31;;;;;;;3.63;2.27;;;10.90;99.90;10.80;101482.00;;;;4973766;28;94853;-65
2021/09/21 01:59:45;;;;;;;3.97;2.57;;;10.80;99.90;10.80;101477.00;;;;4944652;28;93406;-65
2021/09/21 02:02:11;;;;;;;3.57;2.67;;;10.80;99.90;10.80;101475.00;;;;4973993;28;108818;-66
2021/09/21 02:04:37;;;;;;;4.63;2.90;;;10.80;99.90;10.80;101492.00;;;;4974002;28;93143;-66
2021/09/21 02:07:03;;;;;;;3.40;2.30;;;10.80;99.90;10.80;101486.00;;;;4974071;28;93679;-66
2021/09/21 02:09:28;;;;;;;2.83;2.23;;;10.80;99.90;10.80;101484.00;;;;4973779;28;110276;-66
2021/09/21 02:11:54;;;;;;;3.70;2.70;;;10.90;99.90;10.80;101484.00;;;;4974692;28;108506;-66
2021/09/21 02:14:22;;;;;;;3.83;2.40;;;10.90;99.90;10.80;101478.00;;;;4964382;28;122136;-66
2021/09/21 02:16:48;;;;;;;4.10;2.47;;;10.80;99.90;10.80;101481.00;;;;4973585;28;92787;-66
2021/09/21 02:19:14;;;;;;;3.10;2.40;;;10.90;99.90;10.80;101485.00;;;;4973657;28;93982;-67
2021/09/21 02:21:40;;;;;;;2.77;2.47;;;11.10;99.90;10.80;101489.00;;;;4972409;28;92880;-66
2021/09/21 02:24:06;;;;;;;3.83;2.57;;;10.80;99.90;10.80;101488.00;;;;4973904;28;95829;-66
2021/09/21 02:26:31;;;;;;;4.53;2.40;;;10.80;99.90;10.80;101490.00;;;;4972566;28;92875;-66
2021/09/21 02:28:57;;;;;;;5.77;2.90;;;10.80;99.90;10.80;101483.00;;;;4973032;28;111638;-66
2021/09/21 02:31:23;;;;;;;5.83;3.10;;;10.80;99.90;10.70;101489.00;;;;4972996;28;108731;-66
2021/09/21 02:33:49;;;;;;;2.87;2.57;;;10.80;99.90;10.70;101496.00;;;;4973488;28;92780;-66
2021/09/21 02:36:15;;;;;;;3.33;2.40;;;10.70;99.90;10.70;101486.00;;;;4973367;28;122598;-66
2021/09/21 02:38:41;;;;;;;4.83;2.70;;;10.80;99.90;10.70;101487.00;;;;4973984;28;92858;-66
2021/09/21 02:41:07;;;;;;;2.97;2.67;;;10.70;99.90;10.70;101483.00;;;;4972543;28;109798;-66
2021/09/21 02:43:33;;;;;;;3.60;2.47;;;10.80;99.90;10.70;101486.00;;;;4972662;28;103573;-64
2021/09/21 02:46:01;;;;;;;4.77;3.03;;;10.70;99.90;10.70;101483.00;;;;4972975;28;99646;-65
2021/09/21 02:48:32;;;;;;;2.90;1.97;;;10.70;99.90;10.70;101484.00;;;;4955758;28;92872;-67
2021/09/21 02:51:01;;;;;;;4.83;3.13;;;10.70;99.90;10.70;101492.00;;;;4974276;28;93251;-65
2021/09/21 02:53:27;;;;;;;3.23;2.77;;;10.70;99.90;10.70;101494.00;;;;4965191;28;93273;-65
2021/09/21 02:55:53;;;;;;;4.93;2.43;;;10.70;99.90;10.70;101497.00;;;;4973032;28;103085;-66
2021/09/21 02:58:18;;;;;;;4.33;2.67;;;10.70;99.90;10.70;101494.00;;;;4972570;28;105855;-64
2021/09/21 03:00:47;;;;;;;2.30;2.00;;;10.70;99.90;10.70;101495.00;;;;4972440;28;107155;-66
2021/09/21 03:03:13;;;;;;;4.30;2.67;;;10.70;99.90;10.70;101501.00;;;;4972890;28;94342;-66
2021/09/21 03:05:43;;;;;;;6.37;3.20;;;10.70;99.90;10.70;101502.00;;;;4973337;28;92785;-66
2021/09/21 03:08:14;;;;;;;4.70;2.53;;;10.70;99.90;10.70;101510.00;;;;4971813;28;93875;-66
2021/09/21 03:18:35;;;;;;;3.67;2.47;;;10.50;99.90;10.70;101508.00;;;;4972362;28;92955;-65
2021/09/21 03:21:01;;;;;;;4.70;2.77;;;10.70;99.90;10.70;101511.00;;;;4973679;28;93003;-66
2021/09/21 03:23:28;;;;;;;4.10;2.83;;;10.70;99.90;10.70;101514.00;;;;4954482;28;95443;-65
2021/09/21 03:25:54;;;;;;;3.07;2.57;;;10.70;99.90;10.70;101519.00;;;;4973925;28;93206;-65
2021/09/21 03:28:20;;;;;;;2.93;2.37;;;10.70;99.90;10.70;101525.00;;;;4973008;28;92865;-65
2021/09/21 03:30:45;;;;;;;4.37;2.33;;;10.70;99.90;10.70;101532.00;;;;4972497;28;94776;-65
2021/09/21 03:33:11;;;;;;;4.60;2.90;;;10.70;99.90;10.70;101527.00;;;;4971561;28;108681;-65
2021/09/21 03:35:37;;;;;;;4.53;2.70;;;10.70;99.90;10.60;101525.00;;;;4972438;28;121731;-66
2021/09/21 03:38:03;;;;;;;8.60;2.83;;;10.70;99.90;10.60;101525.00;;;;4971875;28;109160;-65
2021/09/21 03:40:30;;;;;;;3.57;2.77;;;10.70;99.90;10.60;101522.00;;;;4972615;28;92861;-65
2021/09/21 03:42:55;;;;;;;4.27;3.00;;;10.60;99.90;10.60;101522.00;;;;4966384;28;93976;-65
2021/09/21 03:45:21;;;;;;;2.67;2.47;;;10.60;99.90;10.60;101523.00;;;;4968867;28;121373;-65
2021/09/21 03:47:47;;;;;;;4.67;2.87;;;10.60;99.90;10.60;101520.00;;;;4972913;28;93021;-65
2021/09/21 03:50:13;;;;;;;3.37;2.97;;;10.60;99.90;10.60;101521.00;;;;4972909;28;110038;-65
2021/09/21 03:52:39;;;;;;;3.23;2.63;;;10.60;99.90;10.60;101521.00;;;;4971294;28;114196;-65
2021/09/21 03:55:05;;;;;;;5.87;2.87;;;10.60;99.90;10.50;101524.00;;;;4971584;28;123467;-66
2021/09/21 03:57:31;;;;;;;4.70;3.30;;;10.60;99.90;10.50;101525.00;;;;4972090;28;93827;-65
2021/09/21 03:59:57;;;;;;;3.67;2.77;;;10.50;99.90;10.50;101528.00;;;;4973024;28;92951;-65
2021/09/21 04:02:22;;;;;;;4.87;3.30;;;10.60;99.90;10.50;101530.00;;;;4971451;28;106215;-65
2021/09/21 04:04:48;;;;;;;6.10;3.53;;;10.60;99.90;10.50;101533.00;;;;4971473;28;121816;-66
2021/09/21 04:07:14;;;;;;;3.33;2.93;;;10.60;99.90;10.60;101536.00;;;;4971904;28;111005;-65
2021/09/21 04:09:40;;;;;;;2.50;2.30;;;10.60;99.90;10.60;101537.00;;;;4972591;28;92942;-65
2021/09/21 04:12:06;;;;;;;3.47;2.90;;;10.60;99.90;10.60;101546.00;;;;4973092;28;121206;-65
2021/09/21 04:14:33;;;;;;;5.53;2.90;;;10.60;99.90;10.60;101539.00;;;;4975848;28;93818;-65
2021/09/21 04:16:59;;;;;;;5.80;3.37;;;10.60;99.90;10.60;101558.00;;;;4974876;28;92803;-65
2021/09/21 04:19:25;;;;;;;4.93;2.80;;;10.60;99.90;10.60;101548.00;;;;4973790;28;108372;-65
2021/09/21 04:21:51;;;;;;;3.17;2.77;;;10.70;99.90;10.60;101549.00;;;;4974913;28;107554;-66
2021/09/21 04:24:16;;;;;;;3.50;2.40;;;10.70;99.90;10.60;101549.00;;;;4974702;28;93689;-66
2021/09/21 04:26:42;;;;;;;4.93;3.50;;;10.60;99.90;10.60;101544.00;;;;4975114;28;110996;-66
2021/09/21 04:29:09;;;;;;;3.77;2.87;;;10.70;99.90;10.60;101540.00;;;;4975220;28;102785;-66
2021/09/21 04:31:41;;;;;;;2.87;2.57;;;10.70;99.90;10.60;101539.00;;;;4975505;28;93625;-66
2021/09/21 04:34:06;;;;;;;4.87;3.10;;;10.70;99.90;10.60;101550.00;;;;4975470;28;93750;-66
2021/09/21 04:36:32;;;;;;;4.30;3.23;;;10.60;99.90;10.60;101556.00;;;;4957390;28;92781;-66
2021/09/21 04:38:58;;;;;;;5.17;3.00;;;10.60;99.90;10.60;101539.00;;;;4975559;28;93896;-66
2021/09/21 04:41:24;;;;;;;2.90;2.60;;;10.70;99.90;10.60;101552.00;;;;4974951;28;123416;-66
2021/09/21 04:43:50;;;;;;;4.83;3.07;;;10.70;99.90;10.60;101551.00;;;;4975078;28;106460;-65
2021/09/21 04:46:15;;;;;;;3.97;2.47;;;10.70;99.90;10.60;101545.00;;;;4975638;28;93706;-65
2021/09/21 04:48:41;;;;;;;6.47;3.27;;;10.70;99.90;10.60;101546.00;;;;4975162;28;92806;-65
2021/09/21 04:51:07;;;;;;;3.00;2.70;;;10.90;99.90;10.60;101551.00;;;;4975051;28;99916;-64
2021/09/21 04:53:33;;;;;;;5.40;2.47;;;10.70;99.90;10.70;101560.00;;;;4973833;28;122628;-64
2021/09/21 04:55:59;;;;;;;5.13;3.47;;;10.70;99.90;10.70;101560.00;;;;4974101;28;92606;-65
2021/09/21 04:58:24;;;;;;;6.10;3.20;;;10.70;99.90;10.70;101559.00;;;;4974195;28;108853;-63
2021/09/21 05:00:50;;;;;;;3.17;2.83;;;10.70;99.90;10.60;101566.00;;;;4974849;28;93788;-66
2021/09/21 05:03:16;;;;;;;4.77;2.93;;;10.70;99.90;10.60;101565.00;;;;4975250;28;92248;-65
2021/09/21 05:05:42;;;;;;;3.10;2.20;;;10.70;99.90;10.60;101575.00;;;;4975957;28;92598;-64
2021/09/21 05:08:07;;;;;;;6.67;2.70;;;10.70;99.90;10.60;101578.00;;;;4971616;28;93090;-64
2021/09/21 05:10:33;;;;;;;3.00;2.70;;;10.60;99.90;10.60;101568.00;;;;4973796;28;123063;-64
2021/09/21 05:12:59;;;;;;;3.07;2.77;;;10.60;99.90;10.60;101556.00;;;;4972534;28;122721;-65
2021/09/21 05:15:26;;;;;;;3.40;2.80;;;10.60;99.90;10.60;101559.00;;;;4975186;28;96997;-65
2021/09/21 05:17:52;;;;;;;3.77;2.63;;;10.60;99.90;10.60;101559.00;;;;4975023;28;93030;-65
2021/09/21 05:20:18;;;;;;;4.90;2.63;;;10.60;99.90;10.60;101565.00;;;;4975290;28;93185;-65
2021/09/21 05:22:50;;;;;;;4.17;2.83;;;10.60;99.90;10.60;101565.00;;;;4972904;28;93211;-65
2021/09/21 05:25:16;;;;;;;4.40;2.90;;;10.60;99.90;10.60;101560.00;;;;4974582;28;92957;-65
2021/09/21 05:27:42;;;;;;;5.70;3.07;;;10.60;99.90;10.60;101574.00;;;;4973044;28;109701;-65
2021/09/21 05:30:08;;;;;;;4.53;2.83;;;10.70;99.90;10.70;101562.00;;;;4973771;28;123724;-65
2021/09/21 05:32:34;;;;;;;5.47;2.87;;;10.70;99.90;10.70;101570.00;;;;4974049;28;93001;-65
2021/09/21 05:35:00;;;;;;;3.97;2.97;;;10.70;99.90;10.70;101573.00;;;;4973498;28;110526;-64
2021/09/21 05:37:27;;;;;;;4.90;2.97;;;10.70;99.90;10.70;101586.00;;;;4974355;28;104208;-65
2021/09/21 05:39:53;;;;;;;3.83;2.97;;;10.70;99.90;10.70;101585.00;;;;4974150;28;94409;-64
2021/09/21 05:42:19;;;;;;;5.60;2.80;;;10.70;99.90;10.70;101590.00;;;;4973471;28;122612;-65
2021/09/21 05:44:45;;;;;;;3.87;2.40;;;10.80;99.90;10.80;101592.00;;;;4974288;28;109838;-64
2021/09/21 05:47:12;;;;;;;3.17;2.40;;;10.70;99.90;10.80;101591.00;;;;4974687;28;92946;-65
2021/09/21 05:49:39;;;;;;;10.80;3.13;;;10.80;99.90;10.80;101599.00;;;;4973989;28;93070;-66
2021/09/21 05:52:05;;;;;;;4.33;2.63;;;10.80;99.90;10.80;101599.00;;;;4975161;28;92028;-66
2021/09/21 05:54:31;;;;;;;3.97;2.70;;;10.80;99.90;10.80;101606.00;;;;4974439;28;92935;-65
2021/09/21 05:56:57;;;;;;;5.33;2.87;;;10.90;99.90;10.90;101604.00;;;;4974460;28;92761;-65
2021/09/21 05:59:23;;;;;;;3.87;2.37;;;10.90;99.90;10.90;101605.00;;;;4973168;28;95098;-65
2021/09/21 06:01:48;;;;;;;3.13;2.20;;;10.90;99.90;10.90;101601.00;;;;4973310;28;124319;-65
2021/09/21 06:04:14;;;;;;;2.77;2.03;;;10.90;99.90;11.00;101596.00;;;;4973748;28;97533;-65
2021/09/21 06:06:40;;;;;;;3.73;2.67;;;11.00;99.90;11.00;101603.00;;;;4974250;28;93226;-65
2021/09/21 06:09:06;;;;;;;4.67;2.37;;;11.00;99.90;11.00;101607.00;;;;4973448;28;110472;-65
2021/09/21 06:11:34;;;;;;;2.73;2.43;;;11.00;99.90;11.10;101612.00;;;;4973285;28;123394;-66
2021/09/21 06:14:01;;;;;;;2.77;2.40;;;11.00;99.90;11.10;101616.00;;;;4966066;28;92867;-66
2021/09/21 06:16:28;;;;;;;3.90;2.83;;;11.10;99.90;11.10;101633.00;;;;4974307;28;91889;-67
2021/09/21 06:18:55;;;;;;;2.50;2.30;;;11.10;99.90;11.20;101634.00;;;;4938815;28;94070;-67
2021/09/21 06:21:21;;;;;;;2.93;2.40;;;11.10;99.90;11.20;101642.00;;;;4973805;28;92829;-66
2021/09/21 06:23:47;;;;;;;4.57;2.60;;;11.20;99.90;11.30;101643.00;;;;4973788;28;93805;-66
2021/09/21 06:26:13;;;;;;;3.07;2.30;;;11.20;99.90;11.30;101641.00;;;;4974082;28;93172;-66
2021/09/21 06:28:39;;;;;;;2.73;2.30;;;11.30;99.90;11.40;101640.00;;;;4973735;28;92755;-66
2021/09/21 06:31:05;;;;;;;4.23;2.87;;;11.30;99.90;11.40;101635.00;;;;4972615;28;116740;-65
2021/09/21 06:33:31;;;;;;;3.60;2.43;;;11.40;99.90;11.40;101644.00;;;;4974267;28;92886;-66
2021/09/21 06:35:57;;;;;;;3.77;2.70;;;11.40;99.90;11.50;101643.00;;;;4973849;28;97508;-66
2021/09/21 06:38:23;;;;;;;3.87;3.23;;;11.40;99.90;11.50;101645.00;;;;4972770;28;123053;-66
2021/09/21 06:40:48;;;;;;;2.70;2.43;;;11.50;99.90;11.60;101643.00;;;;4973035;28;114338;-66
2021/09/21 06:43:14;;;;;;;5.63;3.30;;;11.50;99.90;11.60;101646.00;;;;4973250;28;110003;-66
2021/09/21 06:45:40;;;;;;;4.40;2.40;;;11.50;99.90;11.60;101642.00;;;;4973967;28;106568;-66
2021/09/21 06:48:06;;;;;;;5.20;2.70;;;11.60;99.90;11.70;101648.00;;;;4971492;28;96891;-66
2021/09/21 06:50:31;;;;;;;3.73;2.43;;;11.60;99.90;11.80;101651.00;;;;4973373;28;93675;-66
2021/09/21 06:52:57;;;;;;;2.87;2.33;;;11.70;99.90;11.80;101655.00;;;;4973382;28;92919;-67
2021/09/21 06:55:23;;;;;;;5.00;3.30;;;11.80;99.90;11.90;101656.00;;;;4974236;28;92865;-65
2021/09/21 06:57:51;;;;;;;4.07;2.47;;;11.80;99.90;11.90;101662.00;;;;4968151;28;123486;-66
2021/09/21 07:00:19;;;;;;;4.10;2.63;;;11.90;99.90;12.00;101663.00;;;;4970199;28;92833;-65
2021/09/21 07:02:48;;;;;;;3.13;2.37;;;11.90;99.90;12.00;101659.00;;;;4973751;28;93085;-65
2021/09/21 07:05:14;;;;;;;3.00;2.67;;;12.00;99.90;12.10;101668.00;;;;4973766;28;92118;-65
2021/09/21 07:07:49;;;;;;;2.97;1.87;;;12.00;99.90;12.20;101661.00;;;;4972864;28;93732;-65
2021/09/21 07:10:17;;;;;;;5.07;2.30;;;12.00;99.90;12.30;101666.00;;;;4973191;28;93006;-65
2021/09/21 07:12:43;;;;;;;4.20;2.70;;;12.20;99.90;12.40;101666.00;;;;4972999;28;93819;-66
2021/09/21 07:15:11;;;;;;;3.53;2.83;;;12.30;99.90;12.50;101677.00;;;;4973977;28;92882;-63
2021/09/21 07:17:37;;;;;;;3.33;2.50;;;12.40;99.90;12.60;101670.00;;;;4954715;28;92852;-65
2021/09/21 07:20:05;;;;;;;3.23;2.70;;;12.40;99.90;12.70;101666.00;;;;4971713;28;123133;-64
2021/09/21 07:22:32;;;;;;;3.30;2.20;;;12.60;99.90;12.80;101673.00;;;;4972682;28;93187;-65
2021/09/21 07:24:58;;;;;;;3.73;2.90;;;12.70;99.90;12.90;101669.00;;;;4972751;28;92890;-64
2021/09/21 07:27:25;;;;;;;3.37;2.63;;;12.80;99.90;12.90;101667.00;;;;4972283;28;106224;-64
2021/09/21 07:29:51;;;;;;;5.67;2.60;;;12.80;99.90;13.00;101673.00;;;;4973222;28;93167;-66
2021/09/21 07:32:16;;;;;;;4.67;2.90;;;12.90;99.90;13.10;101674.00;;;;4972901;28;93042;-66
2021/09/21 07:34:42;;;;;;;3.23;2.57;;;13.00;99.90;13.20;101683.00;;;;4972232;28;109622;-65
2021/09/21 07:37:09;;;;;;;3.90;2.40;;;13.10;99.90;13.20;101683.00;;;;4971304;28;123502;-67
2021/09/21 07:39:36;;;;;;;3.00;2.20;;;13.10;99.90;13.30;101691.00;;;;4972415;28;93859;-65
2021/09/21 07:42:02;;;;;;;1.93;1.73;;;13.20;99.90;13.30;101683.00;;;;4973126;28;94209;-65
2021/09/21 07:44:28;;;;;;;3.40;2.40;;;13.30;99.90;13.40;101701.00;;;;4972435;28;92846;-65
2021/09/21 07:46:54;;;;;;;4.67;2.60;;;13.30;99.90;13.50;101691.00;;;;4974667;28;123800;-64
2021/09/21 07:49:20;;;;;;;4.00;2.60;;;13.40;99.90;13.60;101700.00;;;;4979073;28;93566;-64
2021/09/21 07:51:47;;;;;;;4.30;2.67;;;13.50;99.90;13.70;101700.00;;;;4979514;28;92779;-66
2021/09/21 07:54:12;;;;;;;2.23;1.90;;;13.60;99.90;13.80;101708.00;;;;4961209;28;92367;-64
2021/09/21 07:56:38;;;;;;;4.40;2.40;;;13.70;99.90;14.00;101704.00;;;;4978311;28;123653;-64
2021/09/21 07:59:05;;;;;;;3.90;2.30;;;13.80;99.90;14.10;101705.00;;;;4979594;28;92659;-64
2021/09/21 08:01:31;;;;;;;3.73;2.67;;;13.90;99.90;14.20;101714.00;;;;4979569;28;93720;-65
2021/09/21 08:03:57;;;;;;;4.90;2.60;;;14.00;99.90;14.30;101722.00;;;;4979635;28;92759;-66
2021/09/21 08:06:25;;;;;;;5.97;2.80;;;14.10;99.90;14.30;101714.00;;;;4979292;28;93320;-64
2021/09/21 08:08:51;;;;;;;4.63;2.57;;;14.20;99.90;14.40;101722.00;;;;4979197;28;93202;-64
2021/09/21 08:11:17;;;;;;;3.77;2.50;;;14.30;99.90;14.50;101729.00;;;;4979979;28;92947;-65
2021/09/21 08:13:43;;;;;;;2.83;2.10;;;14.40;99.90;14.50;101741.00;;;;4971095;28;92862;-65
2021/09/21 08:16:08;;;;;;;3.73;2.70;;;14.50;99.90;14.60;101747.00;;;;4979169;28;102072;-64
2021/09/21 08:18:35;;;;;;;4.23;2.53;;;14.50;99.90;14.70;101741.00;;;;4978970;28;95212;-64
2021/09/21 08:21:01;;;;;;;3.43;2.10;;;14.60;99.90;14.70;101741.00;;;;4979295;28;92691;-64
2021/09/21 08:23:27;;;;;;;2.93;2.40;;;14.60;99.90;14.80;101746.00;;;;4979405;28;92963;-64
2021/09/21 08:25:53;;;;;;;3.20;2.43;;;14.70;99.90;14.80;101740.00;;;;4978001;28;95023;-65
2021/09/21 08:28:19;;;;;;;3.83;2.80;;;14.70;99.90;14.90;101745.00;;;;4977860;28;123857;-64
2021/09/21 08:30:45;;;;;;;5.87;2.90;;;14.80;99.90;14.90;101749.00;;;;4978668;28;92735;-64
2021/09/21 08:33:10;;;;;;;4.50;2.40;;;14.80;99.90;15.00;101752.00;;;;4977728;28;109806;-64
2021/09/21 08:35:37;;;;;;;4.43;2.93;;;14.80;99.90;15.00;101760.00;;;;4978797;28;93451;-65
2021/09/21 08:38:03;;;;;;;4.97;2.37;;;14.90;99.90;15.00;101749.00;;;;4977599;28;123620;-65
2021/09/21 08:40:30;;;;;;;4.87;2.73;;;14.90;99.90;15.00;101743.00;;;;4978597;28;93130;-64
2021/09/21 08:42:57;;;;;;;3.43;2.00;;;14.90;99.90;15.10;101742.00;;;;4979306;28;92538;-65
2021/09/21 08:45:23;;;;;;;4.18;2.50;;;15.00;99.90;15.10;101749.00;;;;4978383;28;100315;-65
2021/09/21 08:47:49;;;;;;;4.40;2.50;;;15.00;99.90;15.10;101751.00;;;;4978340;28;94416;-66
2021/09/21 08:50:16;;;;;;;3.07;2.67;;;15.00;99.90;15.20;101755.00;;;;4978422;28;93803;-67
2021/09/21 08:52:42;;;;;;;3.27;2.20;;;15.00;99.90;15.30;101754.00;;;;4974633;28;93015;-65
2021/09/21 08:55:13;;;;;;;2.47;2.28;;;15.10;99.90;15.40;101753.00;;;;4973495;28;123363;-65
2021/09/21 08:57:41;;;;;;;4.85;2.45;;;15.20;99.90;15.50;101742.00;;;;4978426;28;93087;-65
2021/09/21 09:00:12;;;;;;;4.73;2.47;;;15.30;99.90;15.60;101745.00;;;;4974774;28;92886;-66
2021/09/21 09:02:38;;;;;;;4.30;2.47;;;15.40;99.90;15.70;101746.00;;;;4975347;28;93128;-65
2021/09/21 09:05:09;;;;;;;2.22;2.03;;;15.50;99.90;15.80;101752.00;;;;4974257;28;122095;-65
2021/09/21 09:07:55;;;;;;;2.70;2.22;;;15.60;99.90;16.20;101763.00;;;;4976107;28;93105;-64
2021/09/21 09:10:23;;;;;;;2.47;2.00;;;15.90;99.90;16.60;101761.00;;;;4975683;28;92803;-65
2021/09/21 09:12:50;;;;;;;5.75;2.72;;;16.30;99.90;17.00;101764.00;;;;4974541;28;94487;-64
2021/09/21 09:15:20;;;;;;;3.38;2.30;;;16.70;99.90;17.30;101764.00;;;;4973927;28;98840;-64
2021/09/21 09:18:05;;;;;;;2.28;1.90;;;17.00;99.90;17.50;101760.00;;;;4974714;28;94765;-64
2021/09/21 09:20:43;;;;;;;3.13;2.47;;;17.20;99.90;17.70;101760.00;;;;4974341;28;92787;-64
2021/09/21 09:23:09;;;;;;;3.95;2.00;;;17.40;99.90;17.90;101754.00;;;;4975204;28;92454;-64
2021/09/21 09:25:48;;;;;;;2.75;2.20;;;17.70;99.90;18.00;101767.00;;;;4974286;28;93884;-64
2021/09/21 09:28:23;;;;;;;3.83;1.95;;;17.80;99.90;18.30;101758.00;;;;4975042;28;92770;-64
2021/09/21 09:30:52;;;;;;;3.15;2.05;;;18.00;99.90;18.40;101753.00;;;;4975615;28;93062;-65
2021/09/21 09:33:20;;;;;;;3.83;1.80;;;18.20;99.30;18.60;101749.00;;;;4975756;28;92148;-64
2021/09/21 09:35:48;;;;;;;4.22;2.10;;;18.60;99.10;18.90;101759.00;;;;4974829;28;93401;-64
2021/09/21 09:38:18;;;;;;;2.70;1.70;;;18.80;98.00;19.20;101763.00;;;;4972452;28;93658;-64
2021/09/21 09:40:53;;;;;;;1.52;1.42;;;18.90;97.30;19.50;101753.00;;;;4974610;28;94055;-65
2021/09/21 09:43:26;;;;;;;1.65;1.55;;;19.20;95.60;19.70;101746.00;;;;4971244;28;92964;-65
2021/09/21 09:45:56;;;;;;;2.65;1.63;;;19.40;94.70;19.90;101749.00;;;;4974807;28;93205;-68
2021/09/21 09:48:24;;;;;;;2.80;1.65;;;19.60;93.40;20.00;101740.00;;;;4974035;28;94024;-69
2021/09/21 09:50:54;;;;;;;2.33;1.50;;;19.70;92.70;20.30;101727.00;;;;4974862;28;92944;-68
2021/09/21 09:53:23;;;;;;;0.98;0.90;;;20.00;92.60;20.50;101733.00;;;;4974352;28;93224;-69
2021/09/21 09:55:53;;;;;;;1.65;1.50;;;20.20;92.20;20.60;101729.00;;;;4975045;28;94428;-68
2021/09/21 09:58:20;;;;;;;1.10;0.93;;;20.30;91.60;20.70;101735.00;;;;4974700;28;100233;-68
2021/09/21 10:00:49;;;;;;;1.77;1.45;;;20.40;91.50;20.70;101737.00;;;;4975157;28;93169;-69
2021/09/21 10:03:15;;;;;;;1.92;1.45;;;20.40;91.00;20.60;101738.00;;;;4969910;28;92989;-69
2021/09/21 10:05:42;;;;;;;1.55;1.45;;;20.40;90.10;20.50;101737.00;;;;4951658;28;103209;-68
2021/09/21 10:08:10;;;;;;;0.88;0.70;;;20.30;89.80;20.30;101735.00;;;;4969577;28;94737;-68
2021/09/21 10:10:39;;;;;;;1.20;1.10;;;20.20;89.40;20.10;101735.00;;;;4974374;28;92900;-68
2021/09/21 10:13:10;;;;;;;1.98;1.27;;;20.00;88.40;19.80;101737.00;;;;4969729;28;92664;-68
2021/09/21 10:15:38;;;;;;;1.10;0.88;;;19.70;88.70;19.60;101727.00;;;;4974143;28;93793;-68
2021/09/21 10:18:04;;;;;;;1.60;1.00;;;19.50;88.50;19.30;101736.00;;;;4973033;28;104085;-68
2021/09/21 10:20:36;;;;;;;2.45;1.40;;;19.30;88.70;19.00;101739.00;;;;4974818;28;92584;-69
2021/09/21 10:23:10;;;;;;;1.30;1.20;;;19.00;89.10;18.80;101734.00;;;;4974275;28;92165;-69
2021/09/21 10:25:42;;;;;;;0.88;0.75;;;18.80;89.90;18.60;101743.00;;;;4971358;28;93486;-68
2021/09/21 10:28:20;;;;;;;0.93;0.82;;;18.60;90.10;18.40;101725.00;;;;4971784;28;93012;-68
2021/09/21 10:30:58;;;;;;;1.88;1.13;;;18.40;90.50;18.30;101733.00;;;;4962199;28;93890;-69
2021/09/21 10:33:28;;;;;;;2.38;1.45;;;18.20;90.50;18.20;101731.00;;;;4955388;28;92711;-68
2021/09/21 10:35:55;;;;;;;1.00;0.82;;;18.10;90.80;18.10;101734.00;;;;4972429;28;122014;-68
2021/09/21 10:38:22;;;;;;;1.25;0.80;;;18.00;91.20;18.00;101734.00;;;;4972888;28;106200;-68
2021/09/21 10:40:52;;;;;;;0.98;0.70;;;17.90;91.20;18.00;101736.00;;;;4974451;28;92782;-70
2021/09/21 10:43:27;;;;;;;1.48;1.17;;;17.90;91.50;17.90;101736.00;;;;4973387;28;92856;-69
2021/09/21 10:46:22;;;;;;;2.30;1.33;;;17.80;91.70;17.90;101745.00;;;;4975002;28;93521;-68
2021/09/21 10:48:48;;;;;;;1.02;0.93;;;17.80;91.90;17.90;101737.00;;;;4955897;28;95293;-68
2021/09/21 10:51:13;;;;;;;1.67;1.17;;;17.70;92.10;17.90;101734.00;;;;4973504;28;92869;-68
2021/09/21 10:53:40;;;;;;;1.67;1.00;;;17.80;92.30;17.90;101744.00;;;;4973996;28;92872;-67
2021/09/21 10:56:12;;;;;;;0.80;0.80;;;17.80;92.30;17.80;101741.00;;;;4969702;28;93859;-67